createdAt,value
2019-05-11T00:00:57.698Z,4.83
2019-05-11T00:03:26.394Z,4.20
2019-05-11T00:05:55.261Z,4.70
2019-05-11T00:08:23.785Z,4.30
2019-05-11T00:10:52.344Z,4.90
2019-05-11T00:13:20.915Z,4.30
2019-05-11T00:15:49.457Z,4.30
2019-05-11T00:18:18.033Z,4.50
2019-05-11T00:20:46.604Z,4.97
2019-05-11T00:23:15.154Z,4.47
2019-05-11T00:25:43.714Z,5.47
2019-05-11T00:28:12.654Z,5.30
2019-05-11T00:30:41.289Z,4.57
2019-05-11T00:33:09.834Z,4.70
2019-05-11T00:35:38.418Z,4.40
2019-05-11T00:38:06.982Z,4.43
2019-05-11T00:40:35.546Z,4.80
2019-05-11T00:43:04.921Z,4.30
2019-05-11T00:45:33.472Z,5.03
2019-05-11T00:48:02.015Z,5.00
2019-05-11T00:50:39.090Z,4.53
2019-05-11T00:53:00.786Z,4.57
2019-05-11T00:55:29.435Z,4.60
2019-05-11T00:57:58.020Z,4.50
2019-05-11T01:00:26.721Z,4.90
2019-05-11T01:02:55.273Z,4.97
2019-05-11T01:05:23.925Z,5.23
2019-05-11T01:07:52.539Z,4.90
2019-05-11T01:10:28.721Z,4.50
2019-05-11T01:12:51.454Z,4.80
2019-05-11T01:15:20.258Z,4.83
2019-05-11T01:17:48.807Z,4.97
2019-05-11T01:20:18.758Z,4.50
2019-05-11T01:22:47.933Z,4.93
2019-05-11T01:25:16.507Z,5.13
2019-05-11T01:28:05.121Z,5.20
2019-05-11T01:30:33.674Z,4.10
2019-05-11T01:33:02.267Z,4.67
2019-05-11T01:35:30.822Z,4.37
2019-05-11T01:37:59.433Z,4.97
2019-05-11T01:40:28.119Z,4.53
2019-05-11T01:42:56.670Z,4.83
2019-05-11T01:45:25.242Z,4.73
2019-05-11T01:47:53.846Z,4.97
2019-05-11T01:50:22.474Z,5.93
2019-05-11T01:52:51.031Z,4.90
2019-05-11T01:55:19.586Z,4.80
2019-05-11T01:57:48.162Z,5.00
2019-05-11T02:00:16.862Z,5.03
2019-05-11T02:02:45.440Z,4.57
2019-05-11T02:05:28.386Z,5.00
2019-05-11T02:07:58.616Z,4.43
2019-05-11T02:10:27.571Z,4.87
2019-05-11T02:12:56.136Z,5.27
2019-05-11T02:15:24.775Z,4.30
2019-05-11T02:17:53.428Z,4.73
2019-05-11T02:20:22.113Z,4.50
2019-05-11T02:22:50.685Z,4.80
2019-05-11T02:25:19.294Z,4.40
2019-05-11T02:27:47.856Z,4.73
2019-05-11T02:30:16.672Z,4.90
2019-05-11T02:32:45.245Z,4.63
2019-05-11T02:35:14.416Z,4.43
2019-05-11T02:37:43.176Z,4.80
2019-05-11T02:40:12.385Z,4.70
2019-05-11T02:42:41.356Z,4.70
2019-05-11T02:45:11.349Z,4.40
2019-05-11T02:47:39.969Z,4.17
2019-05-11T02:50:08.686Z,4.97
2019-05-11T02:52:38.700Z,4.17
2019-05-11T02:55:07.459Z,4.20
2019-05-11T02:57:36.088Z,4.37
2019-05-11T03:00:09.758Z,3.63
2019-05-11T03:02:38.337Z,3.93
2019-05-11T03:05:07.861Z,3.90
2019-05-11T03:07:36.574Z,3.90
2019-05-11T03:10:05.969Z,3.83
2019-05-11T03:12:34.521Z,4.03
2019-05-11T03:15:03.679Z,3.73
2019-05-11T03:17:33.780Z,3.40
2019-05-11T03:20:02.418Z,3.70
2019-05-11T03:22:30.992Z,3.47
2019-05-11T03:24:59.693Z,3.07
2019-05-11T03:27:28.298Z,3.10
2019-05-11T03:30:00.707Z,3.57
2019-05-11T03:32:27.005Z,3.37
2019-05-11T03:34:55.557Z,3.33
2019-05-11T03:37:24.146Z,3.57
2019-05-11T03:39:52.709Z,3.67
2019-05-11T03:42:21.239Z,3.20
2019-05-11T03:44:49.890Z,3.30
2019-05-11T03:47:18.575Z,3.47
2019-05-11T03:49:47.120Z,3.40
2019-05-11T03:52:15.716Z,2.97
2019-05-11T03:54:44.287Z,2.90
2019-05-11T03:57:12.842Z,3.13
2019-05-11T03:59:41.487Z,3.07
2019-05-11T04:02:10.033Z,3.17
2019-05-11T04:04:38.672Z,3.47
2019-05-11T04:07:07.246Z,3.22
2019-05-11T04:09:35.800Z,3.00
2019-05-11T04:12:04.456Z,2.90
2019-05-11T04:14:33.016Z,2.80
2019-05-11T04:17:01.638Z,2.73
2019-05-11T04:19:30.185Z,2.93
2019-05-11T04:21:58.766Z,2.70
2019-05-11T04:24:27.308Z,2.60
2019-05-11T04:26:55.898Z,2.97
2019-05-11T04:29:24.550Z,2.80
2019-05-11T04:31:53.107Z,2.90
2019-05-11T04:34:21.668Z,2.70
2019-05-11T04:36:50.243Z,2.60
2019-05-11T04:39:18.807Z,2.40
2019-05-11T04:41:47.353Z,2.77
2019-05-11T04:44:15.915Z,2.57
2019-05-11T04:46:44.547Z,2.60
2019-05-11T04:49:13.110Z,3.60
2019-05-11T04:51:41.757Z,2.30
2019-05-11T04:54:10.374Z,2.40
2019-05-11T04:56:38.918Z,2.53
2019-05-11T04:59:07.605Z,2.53
2019-05-11T05:01:36.159Z,2.30
2019-05-11T05:04:13.702Z,2.40
2019-05-11T05:06:34.915Z,2.40
2019-05-11T05:09:05.776Z,2.40
2019-05-11T05:11:36.959Z,2.30
2019-05-11T05:14:08.362Z,2.53
2019-05-11T05:16:35.623Z,2.23
2019-05-11T05:19:04.181Z,2.53
2019-05-11T05:21:32.736Z,2.57
2019-05-11T05:24:01.304Z,2.63
2019-05-11T05:26:29.848Z,2.17
2019-05-11T05:28:58.412Z,2.97
2019-05-11T05:31:26.985Z,2.73
2019-05-11T05:33:55.537Z,2.30
2019-05-11T05:36:24.172Z,2.03
2019-05-11T05:38:52.726Z,2.00
2019-05-11T05:41:21.281Z,2.13
2019-05-11T05:43:49.935Z,2.60
2019-05-11T05:46:18.558Z,2.30
2019-05-11T05:48:47.224Z,2.50
2019-05-11T05:51:15.901Z,2.57
2019-05-11T05:53:44.444Z,2.43
2019-05-11T05:56:12.988Z,2.37
2019-05-11T05:58:41.563Z,2.23
2019-05-11T06:01:10.441Z,2.20
2019-05-11T06:03:39.387Z,2.00
2019-05-11T06:06:08.059Z,2.30
2019-05-11T06:08:36.612Z,2.27
2019-05-11T06:11:05.149Z,2.17
2019-05-11T06:13:44.489Z,2.10
2019-05-11T06:16:04.041Z,2.53
2019-05-11T06:18:32.598Z,2.30
2019-05-11T06:21:01.164Z,2.40
2019-05-11T06:23:29.712Z,2.20
2019-05-11T06:25:58.319Z,2.60
2019-05-11T06:28:26.979Z,2.50
2019-05-11T06:30:55.550Z,2.60
2019-05-11T06:33:24.136Z,2.07
2019-05-11T06:35:52.682Z,1.93
2019-05-11T06:38:21.253Z,2.17
2019-05-11T06:40:49.876Z,2.00
2019-05-11T06:43:18.438Z,2.50
2019-05-11T06:45:47.003Z,2.30
2019-05-11T06:48:15.548Z,2.37
2019-05-11T06:50:44.122Z,2.30
2019-05-11T06:53:12.675Z,1.60
2019-05-11T06:55:41.256Z,1.80
2019-05-11T06:58:09.859Z,1.80
2019-05-11T07:00:38.433Z,2.00
2019-05-11T07:03:06.968Z,1.90
2019-05-11T07:05:35.587Z,1.87
2019-05-11T07:08:04.240Z,2.33
2019-05-11T07:10:32.786Z,2.23
2019-05-11T07:13:01.479Z,1.90
2019-05-11T07:15:30.098Z,1.80
2019-05-11T07:17:58.748Z,2.40
2019-05-11T07:20:27.420Z,2.07
2019-05-11T07:22:56.046Z,2.07
2019-05-11T07:25:24.586Z,1.80
2019-05-11T07:27:53.196Z,1.57
2019-05-11T07:30:21.858Z,1.80
2019-05-11T07:32:50.414Z,1.67
2019-05-11T07:35:19.026Z,2.00
2019-05-11T07:37:47.966Z,1.80
2019-05-11T07:40:18.789Z,2.17
2019-05-11T07:42:49.215Z,1.87
2019-05-11T07:45:18.098Z,1.93
2019-05-11T07:47:48.624Z,1.63
2019-05-11T07:50:18.110Z,1.90
2019-05-11T07:52:48.300Z,1.90
2019-05-11T07:55:19.197Z,1.80
2019-05-11T07:57:48.291Z,1.97
2019-05-11T08:00:18.627Z,2.03
2019-05-11T08:02:48.025Z,1.73
2019-05-11T08:05:17.967Z,2.10
2019-05-11T08:07:48.223Z,1.90
2019-05-11T08:10:18.568Z,1.80
2019-05-11T08:12:48.176Z,1.70
2019-05-11T08:15:18.566Z,1.97
2019-05-11T08:17:48.798Z,1.90
2019-05-11T08:20:18.680Z,1.57
2019-05-11T08:22:48.309Z,1.77
2019-05-11T08:25:18.236Z,1.80
2019-05-11T08:27:48.474Z,1.93
2019-05-11T08:30:18.828Z,1.87
2019-05-11T08:32:49.379Z,1.80
2019-05-11T08:35:18.090Z,2.10
2019-05-11T08:37:47.902Z,2.03
2019-05-11T08:40:18.717Z,2.00
2019-05-11T08:42:48.208Z,1.70
2019-05-11T08:45:23.677Z,1.80
2019-05-11T08:47:48.478Z,2.30
2019-05-11T08:50:18.759Z,1.87
2019-05-11T08:52:48.075Z,1.63
2019-05-11T08:55:18.794Z,1.93
2019-05-11T08:57:47.998Z,1.83
2019-05-11T09:00:18.135Z,1.60
2019-05-11T09:02:50.504Z,1.80
2019-05-11T09:05:18.705Z,1.67
2019-05-11T09:07:48.440Z,1.70
2019-05-11T09:10:18.640Z,2.60
2019-05-11T09:12:48.862Z,1.93
2019-05-11T09:15:32.362Z,2.10
2019-05-11T09:17:48.856Z,1.90
2019-05-11T09:20:18.097Z,1.70
2019-05-11T09:22:48.448Z,1.80
2019-05-11T09:25:18.321Z,1.90
2019-05-11T09:27:48.294Z,1.90
2019-05-11T09:30:18.406Z,1.80
2019-05-11T09:32:47.893Z,1.40
2019-05-11T09:35:18.682Z,1.60
2019-05-11T09:37:48.484Z,1.60
2019-05-11T09:40:18.297Z,1.40
2019-05-11T09:42:47.878Z,1.57
2019-05-11T09:45:18.706Z,1.40
2019-05-11T09:47:47.766Z,1.57
2019-05-11T09:50:17.879Z,1.60
2019-05-11T09:52:49.031Z,1.37
2019-05-11T09:55:19.008Z,1.70
2019-05-11T09:57:48.770Z,1.70
2019-05-11T10:00:18.892Z,1.40
2019-05-11T10:02:48.753Z,1.43
2019-05-11T10:05:18.853Z,1.30
2019-05-11T10:07:48.504Z,1.63
2019-05-11T10:10:18.610Z,1.73
2019-05-11T10:12:48.573Z,1.40
2019-05-11T10:15:18.806Z,1.40
2019-05-11T10:17:48.336Z,1.33
2019-05-11T10:20:18.224Z,1.40
2019-05-11T10:22:48.682Z,1.33
2019-05-11T10:25:18.315Z,1.73
2019-05-11T10:27:48.916Z,1.63
2019-05-11T10:30:18.761Z,1.50
2019-05-11T10:32:48.434Z,1.57
2019-05-11T10:35:18.412Z,1.30
2019-05-11T10:37:47.895Z,1.57
2019-05-11T10:40:19.037Z,1.50
2019-05-11T10:42:48.391Z,1.40
2019-05-11T10:45:22.846Z,1.50
2019-05-11T10:47:53.886Z,1.47
2019-05-11T10:50:21.674Z,1.70
2019-05-11T10:52:50.351Z,1.23
2019-05-11T10:55:19.638Z,1.40
2019-05-11T10:57:48.873Z,1.30
2019-05-11T11:00:20.143Z,1.37
2019-05-11T11:02:48.770Z,1.43
2019-05-11T11:05:18.732Z,1.10
2019-05-11T11:07:48.437Z,1.87
2019-05-11T11:10:18.398Z,1.57
2019-05-11T11:12:48.957Z,1.30
2019-05-11T11:15:18.422Z,1.30
2019-05-11T11:17:48.592Z,1.30
2019-05-11T11:20:18.703Z,1.43
2019-05-11T11:22:48.042Z,1.40
2019-05-11T11:25:17.964Z,1.40
2019-05-11T11:27:48.685Z,1.37
2019-05-11T11:30:19.154Z,1.20
2019-05-11T11:32:48.271Z,1.40
2019-05-11T11:35:18.738Z,1.57
2019-05-11T11:37:47.862Z,1.40
2019-05-11T11:40:17.717Z,1.47
2019-05-11T11:42:52.487Z,1.30
2019-05-11T11:45:21.189Z,1.50
2019-05-11T11:47:53.144Z,1.30
2019-05-11T11:50:21.857Z,1.30
2019-05-11T11:52:50.412Z,1.60
2019-05-11T11:55:19.020Z,1.60
2019-05-11T11:57:50.115Z,1.53
2019-05-11T12:00:19.122Z,1.30
2019-05-11T12:02:48.758Z,1.53
2019-05-11T12:05:17.740Z,1.60
2019-05-11T12:07:46.255Z,1.43
2019-05-11T12:10:18.375Z,1.20
2019-05-11T12:12:47.562Z,1.70
2019-05-11T12:15:17.802Z,1.40
2019-05-11T12:17:48.361Z,1.50
2019-05-11T12:20:18.103Z,1.50
2019-05-11T12:22:47.609Z,1.70
2019-05-11T12:25:18.532Z,1.57
2019-05-11T12:27:49.006Z,1.60
2019-05-11T12:30:18.176Z,1.47
2019-05-11T12:32:48.854Z,1.80
2019-05-11T12:35:18.682Z,1.73
2019-05-11T12:37:48.534Z,1.60
2019-05-11T12:40:18.987Z,1.80
2019-05-11T12:42:48.881Z,1.67
2019-05-11T12:45:18.266Z,1.40
2019-05-11T12:47:48.137Z,1.50
2019-05-11T12:50:18.718Z,1.57
2019-05-11T12:52:47.754Z,1.77
2019-05-11T12:55:18.109Z,1.50
2019-05-11T12:57:47.793Z,1.50
2019-05-11T13:00:18.019Z,1.50
2019-05-11T13:02:48.537Z,1.60
2019-05-11T13:05:18.062Z,1.50
2019-05-11T13:07:48.161Z,1.50
2019-05-11T13:10:19.015Z,1.40
2019-05-11T13:12:49.290Z,1.40
2019-05-11T13:15:18.188Z,1.50
2019-05-11T13:17:48.964Z,1.40
2019-05-11T13:20:18.040Z,1.47
2019-05-11T13:22:48.699Z,1.40
2019-05-11T13:25:17.748Z,1.40
2019-05-11T13:27:48.928Z,1.60
2019-05-11T13:30:18.419Z,1.17
2019-05-11T13:32:48.955Z,1.30
2019-05-11T13:35:17.971Z,1.40
2019-05-11T13:37:48.015Z,1.20
2019-05-11T13:40:18.431Z,1.20
2019-05-11T13:42:48.962Z,1.33
2019-05-11T13:45:17.821Z,1.13
2019-05-11T13:47:54.385Z,1.30
2019-05-11T13:50:17.753Z,1.20
2019-05-11T13:52:47.845Z,1.20
2019-05-11T13:55:18.162Z,1.03
2019-05-11T13:57:48.546Z,1.20
2019-05-11T14:00:18.155Z,1.10
2019-05-11T14:02:48.521Z,1.00
2019-05-11T14:05:18.017Z,1.50
2019-05-11T14:07:48.245Z,1.37
2019-05-11T14:10:18.086Z,1.23
2019-05-11T14:12:47.657Z,1.30
2019-05-11T14:15:18.130Z,1.13
2019-05-11T14:17:48.575Z,1.00
2019-05-11T14:20:18.993Z,1.10
2019-05-11T14:22:47.908Z,1.10
2019-05-11T14:25:18.566Z,1.00
2019-05-11T14:27:47.935Z,1.13
2019-05-11T14:30:19.159Z,1.23
2019-05-11T14:32:47.790Z,1.30
2019-05-11T14:35:18.626Z,1.13
2019-05-11T14:37:48.649Z,1.10
2019-05-11T14:43:10.174Z,1.10
2019-05-11T14:45:38.818Z,1.00
2019-05-11T14:48:22.219Z,0.70
2019-05-11T14:50:38.584Z,1.00
2019-05-11T14:53:08.684Z,0.90
2019-05-11T14:55:38.247Z,1.00
2019-05-11T14:58:08.335Z,1.20
2019-05-11T15:00:39.238Z,1.20
2019-05-11T15:03:07.999Z,1.10
2019-05-11T15:05:37.896Z,1.20
2019-05-11T15:08:08.708Z,1.03
2019-05-11T15:10:38.342Z,1.10
2019-05-11T15:13:08.061Z,1.37
2019-05-11T15:15:39.216Z,1.50
2019-05-11T15:18:08.437Z,1.40
2019-05-11T15:20:38.720Z,1.63
2019-05-11T15:23:08.832Z,1.60
2019-05-11T15:25:38.357Z,1.50
2019-05-11T15:28:08.940Z,1.83
2019-05-11T15:30:38.046Z,1.80
2019-05-11T15:33:07.788Z,1.77
2019-05-11T15:35:37.786Z,1.80
2019-05-11T15:38:08.531Z,2.10
2019-05-11T15:40:38.304Z,2.10
2019-05-11T15:43:08.719Z,2.03
2019-05-11T15:45:38.082Z,2.00
2019-05-11T15:48:08.497Z,2.20
2019-05-11T15:50:39.785Z,2.00
2019-05-11T15:53:08.732Z,2.20
2019-05-11T15:55:41.818Z,2.30
2019-05-11T15:58:08.234Z,2.30
2019-05-11T16:00:39.812Z,2.12
2019-05-11T16:03:08.260Z,2.33
2019-05-11T16:05:37.069Z,2.37
2019-05-11T16:08:08.131Z,2.50
2019-05-11T16:10:38.211Z,2.30
2019-05-11T16:13:06.044Z,2.33
2019-05-11T16:15:35.545Z,2.20
2019-05-11T16:18:04.326Z,2.30
2019-05-11T16:20:33.053Z,2.33
2019-05-11T16:23:01.623Z,2.53
2019-05-11T16:25:30.255Z,2.43
2019-05-11T16:27:58.883Z,2.97
2019-05-11T16:30:28.766Z,2.50
2019-05-11T16:32:58.162Z,2.57
2019-05-11T16:35:28.071Z,2.57
2019-05-11T16:37:58.918Z,2.40
2019-05-11T16:40:29.339Z,2.70
2019-05-11T16:42:58.778Z,2.53
2019-05-11T16:45:28.143Z,2.33
2019-05-11T16:47:58.855Z,2.77
2019-05-11T16:50:28.233Z,2.20
2019-05-11T16:52:58.557Z,2.60
2019-05-11T16:55:27.501Z,2.83
2019-05-11T16:57:58.644Z,2.73
2019-05-11T17:00:26.304Z,2.67
2019-05-11T17:02:54.881Z,3.00
2019-05-11T17:05:27.031Z,3.33
2019-05-11T17:07:53.644Z,2.83
2019-05-11T17:10:22.301Z,2.70
2019-05-11T17:12:50.856Z,2.90
2019-05-11T17:15:19.644Z,3.20
2019-05-11T17:17:49.187Z,3.00
2019-05-11T17:20:19.300Z,3.70
2019-05-11T17:22:49.165Z,3.17
2019-05-11T17:25:19.157Z,3.23
2019-05-11T17:27:49.023Z,3.10
2019-05-11T17:30:19.195Z,2.97
2019-05-11T17:32:49.341Z,2.87
2019-05-11T17:35:18.382Z,3.07
2019-05-11T17:37:48.555Z,3.00
2019-05-11T17:40:20.579Z,3.17
2019-05-11T17:42:48.245Z,2.77
2019-05-11T17:45:18.842Z,3.10
2019-05-11T17:47:49.006Z,3.20
2019-05-11T17:50:19.143Z,3.20
2019-05-11T17:52:48.534Z,2.83
2019-05-11T17:55:18.367Z,3.20
2019-05-11T17:57:49.616Z,3.30
2019-05-11T18:00:19.810Z,3.40
2019-05-11T18:02:48.998Z,2.67
2019-05-11T18:05:18.175Z,2.80
2019-05-11T18:07:46.751Z,3.03
2019-05-11T18:10:17.995Z,3.20
2019-05-11T18:12:48.325Z,3.00
2019-05-11T18:15:18.342Z,2.87
2019-05-11T18:17:48.385Z,2.70
2019-05-11T18:20:21.103Z,3.20
2019-05-11T18:22:49.148Z,2.90
2019-05-11T18:25:18.516Z,3.00
2019-05-11T18:27:48.184Z,3.23
2019-05-11T18:30:17.730Z,3.17
2019-05-11T18:32:48.830Z,2.90
2019-05-11T18:35:19.071Z,3.20
2019-05-11T18:37:47.829Z,2.87
2019-05-11T18:40:18.679Z,2.73
2019-05-11T18:42:48.738Z,3.33
2019-05-11T18:45:19.103Z,3.40
2019-05-11T18:47:48.850Z,3.20
2019-05-11T18:50:29.748Z,2.77
2019-05-11T18:52:49.035Z,3.13
2019-05-11T18:55:19.039Z,3.30
2019-05-11T18:57:49.022Z,3.20
2019-05-11T19:00:19.163Z,3.13
2019-05-11T19:02:49.428Z,3.50
2019-05-11T19:05:18.286Z,3.50
2019-05-11T19:07:48.284Z,3.43
2019-05-11T19:10:17.588Z,3.60
2019-05-11T19:12:48.636Z,3.50
2019-05-11T19:15:18.792Z,3.63
2019-05-11T19:17:49.063Z,3.63
2019-05-11T19:20:17.859Z,3.43
2019-05-11T19:22:46.559Z,3.23
2019-05-11T19:25:15.110Z,3.17
2019-05-11T19:27:43.700Z,3.87
2019-05-11T19:30:12.340Z,3.87
2019-05-11T19:32:40.884Z,3.40
2019-05-11T19:35:09.703Z,3.10
2019-05-11T19:37:39.422Z,4.00
2019-05-11T19:40:09.479Z,3.83
2019-05-11T19:42:54.755Z,3.17
2019-05-11T19:45:23.606Z,3.67
2019-05-11T19:47:52.346Z,4.30
2019-05-11T19:50:21.065Z,3.73
2019-05-11T19:52:49.603Z,3.87
2019-05-11T19:55:18.346Z,4.37
2019-05-11T19:57:48.231Z,4.00
2019-05-11T20:00:18.630Z,4.37
2019-05-11T20:02:47.274Z,4.00
2019-05-11T20:05:18.195Z,4.50
2019-05-11T20:07:48.726Z,3.70
2019-05-11T20:10:18.559Z,4.87
2019-05-11T20:12:48.367Z,3.93
2019-05-11T20:15:18.729Z,4.53
2019-05-11T20:17:48.645Z,4.37
2019-05-11T20:20:18.803Z,3.60
2019-05-11T20:22:48.566Z,4.33
2019-05-11T20:25:18.758Z,4.27
2019-05-11T20:27:48.685Z,4.53
2019-05-11T20:30:18.377Z,3.57
2019-05-11T20:32:49.439Z,4.50
2019-05-11T20:35:18.155Z,4.27
2019-05-11T20:37:46.782Z,4.33
2019-05-11T20:40:18.082Z,3.90
2019-05-11T20:42:48.258Z,4.47
2019-05-11T20:45:18.199Z,4.63
2019-05-11T20:47:48.453Z,4.47
2019-05-11T20:50:18.337Z,4.17
2019-05-11T20:52:48.047Z,4.37
2019-05-11T20:55:18.153Z,4.33
2019-05-11T20:57:48.468Z,4.53
2019-05-11T21:00:19.595Z,3.80
2019-05-11T21:02:48.930Z,4.23
2019-05-11T21:05:18.588Z,5.50
2019-05-11T21:07:47.969Z,4.20
2019-05-11T21:10:17.934Z,4.10
2019-05-11T21:12:46.521Z,3.97
2019-05-11T21:15:15.666Z,4.33
2019-05-11T21:17:44.243Z,4.33
2019-05-11T21:20:13.527Z,3.77
2019-05-11T21:22:42.155Z,4.20
2019-05-11T21:25:12.554Z,4.53
2019-05-11T21:27:41.110Z,4.17
2019-05-11T21:30:10.506Z,4.27
2019-05-11T21:32:40.288Z,4.70
2019-05-11T21:35:09.404Z,4.70
2019-05-11T21:37:38.956Z,4.63
2019-05-11T21:40:09.567Z,4.23
2019-05-11T21:42:39.399Z,4.20
2019-05-11T21:45:10.468Z,4.20
2019-05-11T21:47:39.546Z,4.20
2019-05-11T21:50:10.256Z,4.57
2019-05-11T21:52:39.773Z,4.47
2019-05-11T21:55:09.819Z,3.80
2019-05-11T21:57:39.123Z,3.93
2019-05-11T22:00:09.425Z,4.13
2019-05-11T22:02:38.597Z,4.20
2019-05-11T22:05:11.100Z,4.40
2019-05-11T22:07:41.870Z,3.93
2019-05-11T22:10:11.205Z,3.70
2019-05-11T22:12:39.687Z,3.50
2019-05-11T22:15:09.967Z,4.13
2019-05-11T22:17:39.817Z,3.73
2019-05-11T22:20:09.731Z,3.97
2019-05-11T22:22:39.432Z,3.80
2019-05-11T22:25:09.887Z,3.87
2019-05-11T22:27:39.030Z,3.20
2019-05-11T22:30:10.005Z,3.47
2019-05-11T22:32:40.774Z,3.50
2019-05-11T22:35:09.960Z,3.27
2019-05-11T22:37:39.210Z,3.50
2019-05-11T22:40:08.966Z,3.93
2019-05-11T22:42:38.560Z,3.30
2019-05-11T22:45:08.784Z,3.73
2019-05-11T22:47:39.396Z,3.60
2019-05-11T22:50:09.249Z,3.20
2019-05-11T22:52:40.224Z,3.20
2019-05-11T22:55:11.923Z,2.90
2019-05-11T22:57:39.811Z,3.63
2019-05-11T23:00:09.945Z,2.87
2019-05-11T23:02:38.631Z,2.90
2019-05-11T23:05:08.625Z,3.10
2019-05-11T23:07:41.211Z,3.30
2019-05-11T23:10:17.699Z,3.20
2019-05-11T23:12:48.265Z,2.63
2019-05-11T23:15:18.573Z,2.77
2019-05-11T23:17:47.192Z,2.70
2019-05-11T23:20:18.048Z,2.70
2019-05-11T23:22:58.230Z,2.47
2019-05-11T23:25:20.209Z,2.60
2019-05-11T23:27:49.033Z,2.10
2019-05-11T23:30:19.620Z,2.50
2019-05-11T23:32:49.555Z,2.57
2019-05-11T23:35:18.967Z,2.07
2019-05-11T23:37:49.777Z,1.97
2019-05-11T23:40:23.771Z,2.10
2019-05-11T23:42:52.402Z,1.80
2019-05-11T23:45:20.956Z,1.83
2019-05-11T23:47:49.597Z,1.87
2019-05-11T23:50:19.250Z,1.80
2019-05-11T23:52:50.260Z,2.07
2019-05-11T23:55:19.261Z,1.70
2019-05-11T23:57:49.236Z,1.20
